createdAt,value
2023-03-17T00:04:36.775Z,61.01
2023-03-17T00:09:36.940Z,60.96
2023-03-17T00:14:36.385Z,60.87
2023-03-17T00:19:36.543Z,60.76
2023-03-17T00:24:36.667Z,60.58
2023-03-17T00:29:35.442Z,60.62
2023-03-17T00:34:34.402Z,60.70
2023-03-17T00:39:33.157Z,60.61
2023-03-17T00:44:33.371Z,60.47
2023-03-17T00:49:32.865Z,60.80
2023-03-17T00:54:31.652Z,60.70
2023-03-17T00:59:39.268Z,61.02
2023-03-17T01:04:44.044Z,61.39
2023-03-17T01:09:45.594Z,61.58
2023-03-17T01:14:45.803Z,61.96
2023-03-17T01:19:44.771Z,62.14
2023-03-17T01:24:43.548Z,62.26
2023-03-17T01:29:43.130Z,61.85
2023-03-17T01:34:43.408Z,62.36
2023-03-17T01:39:45.604Z,62.54
2023-03-17T01:44:59.671Z,62.45
2023-03-17T01:50:01.908Z,62.91
2023-03-17T01:55:07.008Z,62.89
2023-03-17T02:00:08.489Z,63.17
2023-03-17T02:05:17.109Z,63.10
2023-03-17T02:10:19.416Z,63.62
2023-03-17T02:15:18.567Z,63.80
2023-03-17T02:20:56.667Z,63.87
2023-03-17T02:25:57.032Z,64.16
2023-03-17T02:30:55.826Z,64.62
2023-03-17T02:35:54.680Z,64.94
2023-03-17T02:40:53.460Z,66.26
2023-03-17T02:45:53.755Z,66.38
2023-03-17T02:50:52.560Z,66.48
2023-03-17T02:55:51.309Z,66.42
2023-03-17T03:00:50.164Z,66.38
2023-03-17T03:05:51.059Z,66.85
2023-03-17T03:10:49.889Z,66.62
2023-03-17T03:15:49.055Z,67.09
2023-03-17T03:20:48.158Z,67.15
2023-03-17T03:25:48.487Z,66.69
2023-03-17T03:30:47.408Z,66.66
2023-03-17T03:35:46.500Z,66.68
2023-03-17T03:40:46.916Z,69.40
2023-03-17T03:45:47.137Z,68.88
2023-03-17T03:50:45.952Z,71.06
2023-03-17T03:55:44.838Z,70.63
2023-03-17T04:00:44.596Z,70.11
2023-03-17T04:05:45.088Z,69.84
2023-03-17T04:10:43.929Z,69.38
2023-03-17T04:15:42.832Z,70.08
2023-03-17T04:20:41.781Z,69.17
2023-03-17T04:25:42.431Z,68.75
2023-03-17T04:30:41.658Z,69.89
2023-03-17T04:35:40.867Z,69.63
2023-03-17T04:40:39.639Z,68.82
2023-03-17T04:45:40.450Z,68.67
2023-03-17T04:50:39.262Z,68.33
2023-03-17T04:55:37.980Z,68.60
2023-03-17T05:00:38.942Z,68.18
2023-03-17T05:05:39.207Z,68.04
2023-03-17T05:10:37.945Z,68.54
2023-03-17T05:15:36.796Z,68.05
2023-03-17T05:20:35.664Z,67.70
2023-03-17T05:25:36.039Z,67.87
2023-03-17T05:30:36.899Z,67.28
2023-03-17T05:35:36.020Z,67.64
2023-03-17T05:40:37.131Z,67.18
2023-03-17T05:45:36.397Z,67.35
2023-03-17T05:50:35.410Z,67.61
2023-03-17T05:55:43.147Z,67.31
2023-03-17T06:00:45.393Z,67.77
2023-03-17T06:05:44.317Z,67.74
2023-03-17T06:10:44.909Z,67.38
2023-03-17T06:15:43.993Z,66.96
2023-03-17T06:20:42.990Z,66.71
2023-03-17T06:25:41.812Z,67.82
2023-03-17T06:30:42.196Z,67.80
2023-03-17T06:35:41.159Z,66.86
2023-03-17T06:40:40.034Z,66.50
2023-03-17T06:45:38.904Z,65.91
2023-03-17T06:50:39.348Z,66.16
2023-03-17T06:55:38.111Z,67.23
2023-03-17T07:00:38.360Z,65.77
2023-03-17T07:05:39.470Z,65.38
2023-03-17T07:10:38.314Z,64.54
2023-03-17T07:15:40.135Z,63.29
2023-03-17T07:20:41.858Z,63.55
2023-03-17T07:25:44.292Z,62.99
2023-03-17T07:30:47.017Z,62.37
2023-03-17T07:35:47.622Z,61.55
2023-03-17T07:40:49.052Z,60.49
2023-03-17T07:45:48.570Z,59.34
2023-03-17T07:50:52.569Z,58.66
2023-03-17T07:55:53.565Z,57.60
2023-03-17T08:00:52.600Z,57.54
2023-03-17T08:05:59.537Z,56.43
2023-03-17T08:11:05.282Z,54.63
2023-03-17T08:16:04.164Z,52.72
2023-03-17T08:21:05.452Z,51.79
2023-03-17T08:26:05.658Z,50.08
2023-03-17T08:31:12.867Z,48.98
2023-03-17T08:36:13.532Z,48.79
2023-03-17T08:41:13.938Z,47.80
2023-03-17T08:46:17.094Z,48.57
2023-03-17T08:51:19.406Z,49.00
2023-03-17T08:56:19.218Z,50.32
2023-03-17T09:01:18.904Z,50.60
2023-03-17T09:06:19.273Z,49.87
2023-03-17T09:11:20.577Z,51.12
2023-03-17T09:16:19.928Z,51.15
2023-03-17T09:21:23.904Z,54.28
2023-03-17T09:26:25.212Z,55.58
2023-03-17T09:31:24.070Z,57.32
2023-03-17T09:36:24.362Z,57.26
2023-03-17T09:41:57.178Z,58.55
2023-03-17T09:47:06.267Z,59.50
2023-03-17T09:52:11.562Z,60.08
2023-03-17T09:57:16.638Z,60.28
2023-03-17T10:02:23.238Z,60.05
2023-03-17T10:07:28.721Z,60.66
2023-03-17T10:12:40.000Z,60.68
2023-03-17T10:17:41.823Z,59.53
2023-03-17T10:22:46.694Z,59.02
2023-03-17T10:27:51.852Z,62.20
2023-03-17T10:32:52.047Z,55.47
2023-03-17T10:38:04.357Z,54.98
2023-03-17T10:43:20.686Z,53.16
2023-03-17T10:48:20.808Z,50.21
2023-03-17T10:53:28.397Z,48.00
2023-03-17T10:58:39.787Z,47.49
2023-03-17T11:03:43.770Z,46.34
2023-03-17T11:08:49.102Z,45.70
2023-03-17T11:13:48.202Z,45.63
2023-03-17T11:18:54.250Z,46.47
2023-03-17T11:24:02.359Z,46.14
2023-03-17T11:29:17.780Z,45.29
2023-03-17T11:34:27.435Z,44.87
2023-03-17T11:39:35.287Z,46.03
2023-03-17T11:45:18.258Z,46.49
2023-03-17T11:50:30.432Z,47.37
2023-03-17T11:55:43.701Z,48.46
2023-03-17T12:00:46.827Z,49.23
2023-03-17T12:05:47.018Z,49.97
2023-03-17T12:10:50.670Z,53.87
2023-03-17T12:15:54.113Z,53.19
2023-03-17T12:20:56.883Z,57.01
2023-03-17T12:26:01.221Z,56.68
2023-03-17T12:31:06.917Z,56.75
2023-03-17T12:36:09.035Z,56.49
2023-03-17T12:41:51.048Z,57.78
2023-03-17T12:47:08.803Z,60.71
2023-03-17T12:52:23.988Z,59.11
2023-03-17T12:57:31.063Z,58.28
2023-03-17T13:02:37.352Z,57.85
2023-03-17T13:07:42.476Z,57.69
2023-03-17T13:13:08.958Z,57.48
2023-03-17T13:18:31.423Z,57.77
2023-03-17T13:23:38.804Z,58.70
2023-03-17T13:28:47.375Z,57.88
2023-03-17T13:33:50.878Z,58.70
2023-03-17T13:39:20.505Z,57.53
2023-03-17T13:44:43.012Z,55.96
2023-03-17T13:49:41.817Z,54.93
2023-03-17T13:54:44.066Z,53.58
2023-03-17T13:59:57.000Z,50.38
2023-03-17T14:04:58.916Z,49.40
2023-03-17T14:10:00.297Z,49.14
2023-03-17T14:15:08.252Z,49.63
2023-03-17T14:20:20.560Z,50.08
2023-03-17T14:25:21.356Z,50.78
2023-03-17T14:30:23.696Z,53.62
2023-03-17T14:35:22.417Z,55.68
2023-03-17T14:40:24.215Z,56.00
2023-03-17T14:45:31.440Z,57.33
2023-03-17T14:50:32.689Z,56.96
2023-03-17T14:55:43.400Z,56.52
2023-03-17T15:00:49.921Z,58.93
2023-03-17T15:05:50.200Z,60.30
2023-03-17T15:10:49.263Z,61.13
2023-03-17T15:15:49.432Z,61.46
2023-03-17T15:20:48.454Z,61.44
2023-03-17T15:25:50.619Z,63.43
2023-03-17T15:30:52.503Z,62.49
2023-03-17T15:35:52.445Z,62.72
2023-03-17T15:40:51.321Z,62.04
2023-03-17T15:45:56.632Z,62.31
2023-03-17T15:50:56.793Z,62.13
2023-03-17T15:55:55.792Z,60.45
2023-03-17T16:01:00.042Z,59.72
2023-03-17T16:05:59.741Z,59.89
2023-03-17T16:10:58.606Z,59.18
2023-03-17T16:16:01.199Z,59.59
2023-03-17T16:21:00.210Z,59.37
2023-03-17T16:26:11.715Z,59.71
2023-03-17T16:31:26.422Z,60.34
2023-03-17T16:36:26.990Z,61.31
2023-03-17T16:41:27.754Z,61.77
2023-03-17T16:46:29.398Z,62.49
2023-03-17T16:51:28.173Z,62.52
2023-03-17T16:56:28.938Z,63.10
2023-03-17T17:01:30.592Z,63.10
2023-03-17T17:06:29.569Z,63.81
2023-03-17T17:11:28.386Z,64.16
2023-03-17T17:16:32.169Z,65.34
2023-03-17T17:21:32.978Z,64.67
2023-03-17T17:26:31.964Z,64.70
2023-03-17T17:31:32.595Z,65.00
2023-03-17T17:36:31.519Z,64.97
2023-03-17T17:41:32.452Z,65.54
2023-03-17T17:46:33.084Z,66.38
2023-03-17T17:51:32.837Z,65.84
2023-03-17T17:56:32.773Z,67.70
2023-03-17T18:01:33.441Z,67.95
2023-03-17T18:06:32.317Z,68.60
2023-03-17T18:11:31.159Z,68.85
2023-03-17T18:16:30.005Z,69.01
2023-03-17T18:21:30.454Z,68.90
2023-03-17T18:26:29.766Z,69.44
2023-03-17T18:31:34.225Z,68.19
2023-03-17T18:36:35.162Z,68.06
2023-03-17T18:41:35.866Z,67.29
2023-03-17T18:46:34.980Z,68.09
2023-03-17T18:51:37.378Z,67.33
2023-03-17T18:56:36.235Z,66.61
2023-03-17T19:01:35.179Z,66.36
2023-03-17T19:06:35.478Z,66.16
2023-03-17T19:11:35.699Z,65.45
2023-03-17T19:16:34.674Z,65.63
2023-03-17T19:21:33.702Z,65.42
2023-03-17T19:26:33.766Z,65.28
2023-03-17T19:31:34.321Z,64.92
2023-03-17T19:36:37.266Z,64.95
2023-03-17T19:41:36.585Z,64.89
2023-03-17T19:46:38.477Z,64.83
2023-03-17T19:51:38.977Z,64.50
2023-03-17T19:56:38.569Z,64.37
2023-03-17T20:01:39.316Z,64.28
2023-03-17T20:06:46.088Z,64.52
2023-03-17T20:11:57.935Z,64.46
2023-03-17T20:17:05.760Z,64.54
2023-03-17T20:22:09.640Z,64.36
2023-03-17T20:27:26.472Z,63.95
2023-03-17T20:32:34.527Z,64.09
2023-03-17T20:37:34.120Z,63.91
2023-03-17T20:42:32.997Z,63.87
2023-03-17T20:47:33.169Z,63.90
2023-03-17T20:52:32.014Z,63.57
2023-03-17T20:57:30.836Z,63.57
2023-03-17T21:02:29.746Z,63.99
2023-03-17T21:07:30.488Z,63.74
2023-03-17T21:12:29.477Z,63.39
2023-03-17T21:17:28.811Z,63.38
2023-03-17T21:22:30.118Z,63.19
2023-03-17T21:27:29.326Z,63.24
2023-03-17T21:32:28.142Z,62.98
2023-03-17T21:37:27.385Z,62.75
2023-03-17T21:42:27.916Z,62.87
2023-03-17T21:47:26.648Z,62.61
2023-03-17T21:52:25.646Z,62.44
2023-03-17T21:57:24.638Z,62.56
2023-03-17T22:02:25.175Z,62.41
2023-03-17T22:07:24.111Z,62.41
2023-03-17T22:12:24.204Z,62.27
2023-03-17T22:17:26.173Z,62.41
2023-03-17T22:22:25.430Z,62.29
2023-03-17T22:27:24.227Z,62.36
2023-03-17T22:32:24.553Z,62.66
2023-03-17T22:37:51.696Z,63.58
2023-03-17T22:42:50.493Z,64.30
2023-03-17T22:47:51.247Z,63.90
2023-03-17T22:52:50.608Z,63.86
2023-03-17T22:57:49.347Z,63.17
2023-03-17T23:02:48.136Z,63.34
2023-03-17T23:07:50.821Z,63.14
2023-03-17T23:12:50.889Z,63.24
2023-03-17T23:17:49.710Z,63.07
2023-03-17T23:22:49.993Z,63.32
2023-03-17T23:27:49.420Z,63.54
2023-03-17T23:32:49.321Z,63.45
2023-03-17T23:37:50.279Z,63.34
2023-03-17T23:42:49.884Z,63.73
2023-03-17T23:47:49.374Z,63.56
2023-03-17T23:52:49.787Z,64.51
2023-03-17T23:57:49.381Z,63.83
